Aviation Digital Data Service (ADDS)

Output produced by METARs form (1112 UTC 24 April 2017)
found at http://www.aviationweather.gov/adds/metars/
 
TAF HBBA 240300Z 2406/2512 18010G20KT 9999 FEW025 FEW030CB BKN100 
     PROB30 
     TEMPO2412/2417 08015G25KT 6000 SHRA OR TSRA SCT025CB BKN100 
     BECMG2420/2422 00000K CAVOK 
     BECMG2502/2504 36003KT 9999 FEW022 SCT100 
     BECMG2507/2509 18010G20KT 9999 FEW025 FEW028CB BKN100